sensor_id;sensor_type;location;lat;lon;timestamp;P1;durP1;ratioP1;P2;durP2;ratioP2
23628;SDS011;11991;57.150;-2.134;2023-04-24T00:01:33;10.57;;;3.60;;
23628;SDS011;11991;57.150;-2.134;2023-04-24T00:04:05;12.77;;;3.20;;
23628;SDS011;11991;57.150;-2.134;2023-04-24T00:06:37;14.50;;;5.40;;
23628;SDS011;11991;57.150;-2.134;2023-04-24T00:09:05;11.70;;;4.53;;
23628;SDS011;11991;57.150;-2.134;2023-04-24T00:11:33;9.90;;;3.33;;
23628;SDS011;11991;57.150;-2.134;2023-04-24T00:14:00;14.63;;;3.83;;
23628;SDS011;11991;57.150;-2.134;2023-04-24T00:16:36;6.87;;;3.17;;
23628;SDS011;11991;57.150;-2.134;2023-04-24T00:19:05;9.80;;;3.13;;
23628;SDS011;11991;57.150;-2.134;2023-04-24T00:21:37;11.43;;;3.40;;
23628;SDS011;11991;57.150;-2.134;2023-04-24T00:24:05;12.90;;;3.20;;
23628;SDS011;11991;57.150;-2.134;2023-04-24T00:26:35;7.07;;;3.20;;
23628;SDS011;11991;57.150;-2.134;2023-04-24T00:29:03;7.53;;;2.30;;
23628;SDS011;11991;57.150;-2.134;2023-04-24T00:31:31;5.97;;;2.70;;
23628;SDS011;11991;57.150;-2.134;2023-04-24T00:34:01;8.13;;;3.00;;
23628;SDS011;11991;57.150;-2.134;2023-04-24T00:36:30;7.37;;;2.80;;
23628;SDS011;11991;57.150;-2.134;2023-04-24T00:39:05;5.43;;;2.53;;
23628;SDS011;11991;57.150;-2.134;2023-04-24T00:41:42;7.47;;;2.93;;
23628;SDS011;11991;57.150;-2.134;2023-04-24T00:44:13;7.77;;;2.87;;
23628;SDS011;11991;57.150;-2.134;2023-04-24T00:46:48;8.33;;;3.43;;
23628;SDS011;11991;57.150;-2.134;2023-04-24T00:49:37;11.17;;;3.13;;
23628;SDS011;11991;57.150;-2.134;2023-04-24T00:52:09;11.53;;;4.33;;
23628;SDS011;11991;57.150;-2.134;2023-04-24T00:54:38;8.57;;;3.73;;
23628;SDS011;11991;57.150;-2.134;2023-04-24T00:57:06;10.33;;;4.10;;
23628;SDS011;11991;57.150;-2.134;2023-04-24T00:59:36;13.40;;;4.80;;
23628;SDS011;11991;57.150;-2.134;2023-04-24T01:06:40;9.00;;;3.47;;
23628;SDS011;11991;57.150;-2.134;2023-04-24T01:09:12;8.80;;;4.27;;
23628;SDS011;11991;57.150;-2.134;2023-04-24T01:11:41;10.20;;;3.40;;
23628;SDS011;11991;57.150;-2.134;2023-04-24T01:14:12;12.20;;;4.03;;
23628;SDS011;11991;57.150;-2.134;2023-04-24T01:16:40;12.30;;;3.30;;
23628;SDS011;11991;57.150;-2.134;2023-04-24T01:19:08;13.30;;;3.97;;
23628;SDS011;11991;57.150;-2.134;2023-04-24T01:21:39;12.97;;;4.10;;
23628;SDS011;11991;57.150;-2.134;2023-04-24T01:24:09;13.13;;;4.70;;
23628;SDS011;11991;57.150;-2.134;2023-04-24T01:26:37;9.27;;;3.37;;
23628;SDS011;11991;57.150;-2.134;2023-04-24T01:29:05;12.10;;;5.13;;
23628;SDS011;11991;57.150;-2.134;2023-04-24T01:31:33;11.83;;;3.90;;
23628;SDS011;11991;57.150;-2.134;2023-04-24T01:34:04;12.20;;;3.30;;
23628;SDS011;11991;57.150;-2.134;2023-04-24T01:36:35;11.27;;;3.80;;
23628;SDS011;11991;57.150;-2.134;2023-04-24T01:39:04;9.63;;;3.00;;
23628;SDS011;11991;57.150;-2.134;2023-04-24T01:41:41;11.00;;;3.73;;
23628;SDS011;11991;57.150;-2.134;2023-04-24T01:44:10;10.90;;;3.63;;
23628;SDS011;11991;57.150;-2.134;2023-04-24T01:46:38;10.93;;;4.20;;
23628;SDS011;11991;57.150;-2.134;2023-04-24T01:49:06;11.70;;;3.87;;
23628;SDS011;11991;57.150;-2.134;2023-04-24T01:51:33;12.03;;;3.90;;
23628;SDS011;11991;57.150;-2.134;2023-04-24T01:54:02;10.77;;;3.40;;
23628;SDS011;11991;57.150;-2.134;2023-04-24T01:56:31;9.57;;;3.33;;
23628;SDS011;11991;57.150;-2.134;2023-04-24T01:59:03;10.07;;;3.27;;
23628;SDS011;11991;57.150;-2.134;2023-04-24T02:01:35;10.33;;;2.90;;
23628;SDS011;11991;57.150;-2.134;2023-04-24T02:04:03;6.90;;;3.50;;
23628;SDS011;11991;57.150;-2.134;2023-04-24T02:06:47;11.27;;;3.40;;
23628;SDS011;11991;57.150;-2.134;2023-04-24T02:09:15;9.43;;;2.73;;
23628;SDS011;11991;57.150;-2.134;2023-04-24T02:11:46;6.33;;;2.67;;
23628;SDS011;11991;57.150;-2.134;2023-04-24T02:14:14;6.30;;;2.73;;
23628;SDS011;11991;57.150;-2.134;2023-04-24T02:16:43;6.20;;;2.60;;
23628;SDS011;11991;57.150;-2.134;2023-04-24T02:19:11;7.00;;;2.97;;
23628;SDS011;11991;57.150;-2.134;2023-04-24T02:21:39;10.17;;;3.03;;
23628;SDS011;11991;57.150;-2.134;2023-04-24T02:24:07;8.37;;;2.90;;
23628;SDS011;11991;57.150;-2.134;2023-04-24T02:26:35;5.33;;;2.60;;
23628;SDS011;11991;57.150;-2.134;2023-04-24T02:29:02;5.73;;;2.40;;
23628;SDS011;11991;57.150;-2.134;2023-04-24T02:31:29;4.90;;;2.40;;
23628;SDS011;11991;57.150;-2.134;2023-04-24T02:33:57;8.27;;;2.50;;
23628;SDS011;11991;57.150;-2.134;2023-04-24T02:36:25;5.00;;;2.40;;
23628;SDS011;11991;57.150;-2.134;2023-04-24T02:38:52;6.10;;;3.40;;
23628;SDS011;11991;57.150;-2.134;2023-04-24T02:41:20;5.20;;;2.67;;
23628;SDS011;11991;57.150;-2.134;2023-04-24T02:48:01;8.47;;;2.47;;
23628;SDS011;11991;57.150;-2.134;2023-04-24T02:50:29;7.17;;;2.27;;
23628;SDS011;11991;57.150;-2.134;2023-04-24T02:52:57;13.03;;;2.80;;
23628;SDS011;11991;57.150;-2.134;2023-04-24T02:55:30;8.33;;;2.47;;
23628;SDS011;11991;57.150;-2.134;2023-04-24T02:57:58;7.60;;;2.50;;
23628;SDS011;11991;57.150;-2.134;2023-04-24T03:00:25;5.93;;;2.40;;
23628;SDS011;11991;57.150;-2.134;2023-04-24T03:02:53;4.70;;;2.20;;
23628;SDS011;11991;57.150;-2.134;2023-04-24T03:05:21;5.63;;;2.40;;
23628;SDS011;11991;57.150;-2.134;2023-04-24T03:07:48;11.53;;;3.07;;
23628;SDS011;11991;57.150;-2.134;2023-04-24T03:10:16;7.57;;;2.23;;
23628;SDS011;11991;57.150;-2.134;2023-04-24T03:12:43;5.80;;;2.60;;
23628;SDS011;11991;57.150;-2.134;2023-04-24T03:15:11;10.43;;;3.13;;
23628;SDS011;11991;57.150;-2.134;2023-04-24T03:17:39;4.33;;;2.13;;
23628;SDS011;11991;57.150;-2.134;2023-04-24T03:20:06;7.33;;;2.70;;
23628;SDS011;11991;57.150;-2.134;2023-04-24T03:22:37;9.07;;;2.37;;
23628;SDS011;11991;57.150;-2.134;2023-04-24T03:25:06;7.07;;;2.97;;
23628;SDS011;11991;57.150;-2.134;2023-04-24T03:27:36;10.57;;;2.70;;
23628;SDS011;11991;57.150;-2.134;2023-04-24T03:30:11;12.80;;;3.90;;
23628;SDS011;11991;57.150;-2.134;2023-04-24T03:32:46;10.57;;;3.03;;
23628;SDS011;11991;57.150;-2.134;2023-04-24T03:35:20;14.33;;;3.47;;
23628;SDS011;11991;57.150;-2.134;2023-04-24T03:37:49;8.13;;;2.73;;
23628;SDS011;11991;57.150;-2.134;2023-04-24T03:40:35;8.80;;;3.20;;
23628;SDS011;11991;57.150;-2.134;2023-04-24T03:43:09;7.20;;;2.63;;
23628;SDS011;11991;57.150;-2.134;2023-04-24T03:45:37;7.57;;;2.45;;
23628;SDS011;11991;57.150;-2.134;2023-04-24T03:48:05;9.13;;;3.00;;
23628;SDS011;11991;57.150;-2.134;2023-04-24T03:50:34;8.67;;;3.00;;
23628;SDS011;11991;57.150;-2.134;2023-04-24T03:53:01;8.63;;;2.57;;
23628;SDS011;11991;57.150;-2.134;2023-04-24T03:55:35;7.37;;;2.80;;
23628;SDS011;11991;57.150;-2.134;2023-04-24T03:58:03;5.50;;;2.30;;
23628;SDS011;11991;57.150;-2.134;2023-04-24T04:00:35;7.80;;;2.30;;
23628;SDS011;11991;57.150;-2.134;2023-04-24T04:03:23;8.70;;;2.63;;
23628;SDS011;11991;57.150;-2.134;2023-04-24T04:05:52;8.33;;;3.07;;
23628;SDS011;11991;57.150;-2.134;2023-04-24T04:08:20;6.73;;;2.30;;
23628;SDS011;11991;57.150;-2.134;2023-04-24T04:10:48;7.57;;;2.30;;
23628;SDS011;11991;57.150;-2.134;2023-04-24T04:13:15;7.17;;;2.73;;
23628;SDS011;11991;57.150;-2.134;2023-04-24T04:15:43;10.57;;;2.33;;
23628;SDS011;11991;57.150;-2.134;2023-04-24T04:18:15;8.70;;;3.30;;
23628;SDS011;11991;57.150;-2.134;2023-04-24T04:20:44;7.83;;;2.33;;
23628;SDS011;11991;57.150;-2.134;2023-04-24T04:23:14;6.93;;;2.43;;
23628;SDS011;11991;57.150;-2.134;2023-04-24T04:25:52;5.10;;;2.00;;
23628;SDS011;11991;57.150;-2.134;2023-04-24T04:28:23;3.87;;;1.67;;
23628;SDS011;11991;57.150;-2.134;2023-04-24T04:30:53;4.67;;;2.30;;
23628;SDS011;11991;57.150;-2.134;2023-04-24T04:33:24;8.43;;;2.63;;
23628;SDS011;11991;57.150;-2.134;2023-04-24T04:35:52;5.37;;;2.07;;
23628;SDS011;11991;57.150;-2.134;2023-04-24T04:38:20;9.30;;;2.13;;
23628;SDS011;11991;57.150;-2.134;2023-04-24T04:41:10;5.77;;;2.30;;
23628;SDS011;11991;57.150;-2.134;2023-04-24T04:43:39;3.53;;;1.90;;
23628;SDS011;11991;57.150;-2.134;2023-04-24T04:46:07;5.53;;;1.83;;
23628;SDS011;11991;57.150;-2.134;2023-04-24T04:49:03;5.10;;;2.10;;
23628;SDS011;11991;57.150;-2.134;2023-04-24T04:51:31;3.47;;;1.80;;
23628;SDS011;11991;57.150;-2.134;2023-04-24T04:53:59;5.20;;;2.30;;
23628;SDS011;11991;57.150;-2.134;2023-04-24T04:56:28;3.73;;;1.67;;
23628;SDS011;11991;57.150;-2.134;2023-04-24T04:58:59;5.43;;;1.93;;
23628;SDS011;11991;57.150;-2.134;2023-04-24T05:01:26;4.37;;;2.20;;
23628;SDS011;11991;57.150;-2.134;2023-04-24T05:03:54;4.80;;;2.30;;
23628;SDS011;11991;57.150;-2.134;2023-04-24T05:06:22;8.80;;;2.40;;
23628;SDS011;11991;57.150;-2.134;2023-04-24T05:08:51;4.90;;;2.43;;
23628;SDS011;11991;57.150;-2.134;2023-04-24T05:11:45;7.07;;;2.17;;
23628;SDS011;11991;57.150;-2.134;2023-04-24T05:14:13;5.07;;;2.40;;
23628;SDS011;11991;57.150;-2.134;2023-04-24T05:16:42;4.70;;;2.13;;
23628;SDS011;11991;57.150;-2.134;2023-04-24T05:19:10;6.53;;;2.50;;
23628;SDS011;11991;57.150;-2.134;2023-04-24T05:21:44;3.83;;;2.10;;
23628;SDS011;11991;57.150;-2.134;2023-04-24T05:24:12;4.40;;;2.20;;
23628;SDS011;11991;57.150;-2.134;2023-04-24T05:27:00;4.63;;;2.07;;
23628;SDS011;11991;57.150;-2.134;2023-04-24T05:29:38;4.63;;;2.03;;
23628;SDS011;11991;57.150;-2.134;2023-04-24T05:32:08;4.57;;;3.00;;
23628;SDS011;11991;57.150;-2.134;2023-04-24T05:34:35;5.13;;;2.17;;
23628;SDS011;11991;57.150;-2.134;2023-04-24T05:37:03;6.57;;;2.77;;
23628;SDS011;11991;57.150;-2.134;2023-04-24T05:39:34;6.30;;;2.97;;
23628;SDS011;11991;57.150;-2.134;2023-04-24T05:42:02;5.00;;;2.37;;
23628;SDS011;11991;57.150;-2.134;2023-04-24T05:44:31;9.70;;;3.13;;
23628;SDS011;11991;57.150;-2.134;2023-04-24T05:46:58;8.27;;;2.87;;
23628;SDS011;11991;57.150;-2.134;2023-04-24T05:49:27;5.37;;;2.43;;
23628;SDS011;11991;57.150;-2.134;2023-04-24T05:51:56;5.50;;;2.73;;
23628;SDS011;11991;57.150;-2.134;2023-04-24T05:54:24;8.07;;;2.90;;
23628;SDS011;11991;57.150;-2.134;2023-04-24T05:56:51;10.10;;;2.93;;
23628;SDS011;11991;57.150;-2.134;2023-04-24T05:59:31;8.23;;;2.73;;
23628;SDS011;11991;57.150;-2.134;2023-04-24T06:01:58;4.53;;;2.57;;
23628;SDS011;11991;57.150;-2.134;2023-04-24T06:04:26;8.80;;;2.50;;
23628;SDS011;11991;57.150;-2.134;2023-04-24T06:06:54;5.47;;;2.37;;
23628;SDS011;11991;57.150;-2.134;2023-04-24T06:09:23;8.67;;;3.43;;
23628;SDS011;11991;57.150;-2.134;2023-04-24T06:11:51;9.13;;;2.70;;
23628;SDS011;11991;57.150;-2.134;2023-04-24T06:14:25;6.27;;;2.37;;
23628;SDS011;11991;57.150;-2.134;2023-04-24T06:17:14;8.33;;;2.90;;
23628;SDS011;11991;57.150;-2.134;2023-04-24T06:19:44;10.33;;;2.50;;
23628;SDS011;11991;57.150;-2.134;2023-04-24T06:22:12;7.77;;;2.70;;
23628;SDS011;11991;57.150;-2.134;2023-04-24T06:24:40;7.13;;;2.70;;
23628;SDS011;11991;57.150;-2.134;2023-04-24T06:27:07;10.03;;;2.60;;
23628;SDS011;11991;57.150;-2.134;2023-04-24T06:29:36;7.53;;;2.63;;
23628;SDS011;11991;57.150;-2.134;2023-04-24T06:32:04;6.47;;;2.60;;
23628;SDS011;11991;57.150;-2.134;2023-04-24T06:34:32;7.73;;;2.70;;
23628;SDS011;11991;57.150;-2.134;2023-04-24T06:37:00;6.60;;;2.13;;
23628;SDS011;11991;57.150;-2.134;2023-04-24T06:39:28;4.57;;;2.23;;
23628;SDS011;11991;57.150;-2.134;2023-04-24T06:41:56;5.83;;;2.33;;
23628;SDS011;11991;57.150;-2.134;2023-04-24T06:44:23;7.57;;;2.70;;
23628;SDS011;11991;57.150;-2.134;2023-04-24T06:46:51;7.93;;;2.73;;
23628;SDS011;11991;57.150;-2.134;2023-04-24T06:49:19;6.17;;;2.83;;
23628;SDS011;11991;57.150;-2.134;2023-04-24T06:51:47;7.17;;;2.57;;
23628;SDS011;11991;57.150;-2.134;2023-04-24T06:54:14;9.27;;;2.10;;
23628;SDS011;11991;57.150;-2.134;2023-04-24T06:56:42;7.23;;;2.00;;
23628;SDS011;11991;57.150;-2.134;2023-04-24T06:59:09;4.10;;;1.93;;
23628;SDS011;11991;57.150;-2.134;2023-04-24T07:01:37;5.27;;;1.83;;
23628;SDS011;11991;57.150;-2.134;2023-04-24T07:04:04;6.73;;;3.10;;
23628;SDS011;11991;57.150;-2.134;2023-04-24T07:06:32;8.17;;;2.07;;
23628;SDS011;11991;57.150;-2.134;2023-04-24T07:09:00;8.37;;;2.30;;
23628;SDS011;11991;57.150;-2.134;2023-04-24T07:11:28;9.10;;;2.70;;
23628;SDS011;11991;57.150;-2.134;2023-04-24T07:13:55;5.33;;;2.03;;
23628;SDS011;11991;57.150;-2.134;2023-04-24T07:16:23;8.67;;;2.60;;
23628;SDS011;11991;57.150;-2.134;2023-04-24T07:18:50;4.80;;;2.20;;
23628;SDS011;11991;57.150;-2.134;2023-04-24T07:21:20;5.00;;;2.33;;
23628;SDS011;11991;57.150;-2.134;2023-04-24T07:23:47;9.97;;;2.60;;
23628;SDS011;11991;57.150;-2.134;2023-04-24T07:26:15;9.07;;;2.33;;
23628;SDS011;11991;57.150;-2.134;2023-04-24T07:28:42;10.47;;;2.40;;
23628;SDS011;11991;57.150;-2.134;2023-04-24T07:31:10;5.10;;;2.40;;
23628;SDS011;11991;57.150;-2.134;2023-04-24T07:33:38;7.00;;;2.23;;
23628;SDS011;11991;57.150;-2.134;2023-04-24T07:36:06;8.67;;;2.83;;
23628;SDS011;11991;57.150;-2.134;2023-04-24T07:38:33;8.13;;;2.67;;
23628;SDS011;11991;57.150;-2.134;2023-04-24T07:41:01;7.50;;;2.63;;
23628;SDS011;11991;57.150;-2.134;2023-04-24T07:43:29;8.83;;;2.80;;
23628;SDS011;11991;57.150;-2.134;2023-04-24T07:45:56;7.27;;;2.67;;
23628;SDS011;11991;57.150;-2.134;2023-04-24T07:48:24;8.67;;;2.83;;
23628;SDS011;11991;57.150;-2.134;2023-04-24T07:50:53;11.27;;;3.47;;
23628;SDS011;11991;57.150;-2.134;2023-04-24T07:53:21;8.47;;;2.97;;
23628;SDS011;11991;57.150;-2.134;2023-04-24T07:55:50;8.57;;;3.47;;
23628;SDS011;11991;57.150;-2.134;2023-04-24T08:02:44;7.13;;;2.63;;
23628;SDS011;11991;57.150;-2.134;2023-04-24T08:05:13;11.17;;;3.20;;
23628;SDS011;11991;57.150;-2.134;2023-04-24T08:07:41;7.23;;;2.67;;
23628;SDS011;11991;57.150;-2.134;2023-04-24T08:10:12;6.87;;;2.30;;
23628;SDS011;11991;57.150;-2.134;2023-04-24T08:12:40;14.05;;;2.65;;
23628;SDS011;11991;57.150;-2.134;2023-04-24T08:15:07;11.82;;;2.53;;
23628;SDS011;11991;57.150;-2.134;2023-04-24T08:17:35;10.23;;;2.47;;
23628;SDS011;11991;57.150;-2.134;2023-04-24T08:20:03;11.68;;;3.00;;
23628;SDS011;11991;57.150;-2.134;2023-04-24T08:22:31;5.72;;;1.90;;
23628;SDS011;11991;57.150;-2.134;2023-04-24T08:24:59;6.55;;;1.85;;
23628;SDS011;11991;57.150;-2.134;2023-04-24T08:27:27;14.73;;;3.10;;
23628;SDS011;11991;57.150;-2.134;2023-04-24T08:29:54;4.32;;;1.88;;
23628;SDS011;11991;57.150;-2.134;2023-04-24T08:32:22;8.35;;;2.67;;
23628;SDS011;11991;57.150;-2.134;2023-04-24T08:34:49;7.93;;;2.10;;
23628;SDS011;11991;57.150;-2.134;2023-04-24T08:37:16;8.52;;;2.88;;
23628;SDS011;11991;57.150;-2.134;2023-04-24T08:39:44;6.13;;;2.45;;
23628;SDS011;11991;57.150;-2.134;2023-04-24T08:42:11;6.47;;;2.17;;
23628;SDS011;11991;57.150;-2.134;2023-04-24T08:44:41;6.38;;;2.05;;
23628;SDS011;11991;57.150;-2.134;2023-04-24T08:47:09;8.98;;;2.17;;
23628;SDS011;11991;57.150;-2.134;2023-04-24T08:49:39;8.45;;;2.50;;
23628;SDS011;11991;57.150;-2.134;2023-04-24T08:52:07;7.40;;;2.05;;
23628;SDS011;11991;57.150;-2.134;2023-04-24T08:54:35;4.95;;;2.10;;
23628;SDS011;11991;57.150;-2.134;2023-04-24T08:57:03;8.82;;;2.00;;
23628;SDS011;11991;57.150;-2.134;2023-04-24T08:59:33;7.13;;;1.92;;
23628;SDS011;11991;57.150;-2.134;2023-04-24T09:02:04;7.25;;;2.50;;
23628;SDS011;11991;57.150;-2.134;2023-04-24T09:04:40;5.60;;;2.05;;
23628;SDS011;11991;57.150;-2.134;2023-04-24T09:07:08;5.32;;;2.13;;
23628;SDS011;11991;57.150;-2.134;2023-04-24T09:09:45;6.57;;;1.80;;
23628;SDS011;11991;57.150;-2.134;2023-04-24T09:12:12;5.57;;;2.35;;
23628;SDS011;11991;57.150;-2.134;2023-04-24T09:14:40;6.55;;;3.08;;
23628;SDS011;11991;57.150;-2.134;2023-04-24T09:17:15;4.25;;;1.80;;
23628;SDS011;11991;57.150;-2.134;2023-04-24T09:19:42;6.75;;;2.20;;
23628;SDS011;11991;57.150;-2.134;2023-04-24T09:22:10;9.60;;;4.85;;
23628;SDS011;11991;57.150;-2.134;2023-04-24T09:24:38;14.13;;;5.65;;
23628;SDS011;11991;57.150;-2.134;2023-04-24T09:27:10;8.30;;;2.45;;
23628;SDS011;11991;57.150;-2.134;2023-04-24T09:29:59;8.27;;;2.10;;
23628;SDS011;11991;57.150;-2.134;2023-04-24T09:33:19;9.73;;;2.97;;
23628;SDS011;11991;57.150;-2.134;2023-04-24T09:35:53;7.78;;;2.53;;
23628;SDS011;11991;57.150;-2.134;2023-04-24T09:38:30;15.18;;;3.00;;
23628;SDS011;11991;57.150;-2.134;2023-04-24T09:40:59;8.98;;;2.88;;
23628;SDS011;11991;57.150;-2.134;2023-04-24T09:43:51;8.40;;;3.13;;
23628;SDS011;11991;57.150;-2.134;2023-04-24T09:47:10;3.47;;;1.83;;
23628;SDS011;11991;57.150;-2.134;2023-04-24T09:49:41;9.73;;;2.65;;
23628;SDS011;11991;57.150;-2.134;2023-04-24T09:52:11;6.28;;;2.17;;
23628;SDS011;11991;57.150;-2.134;2023-04-24T09:54:42;6.75;;;2.45;;
23628;SDS011;11991;57.150;-2.134;2023-04-24T09:57:33;8.50;;;2.30;;
23628;SDS011;11991;57.150;-2.134;2023-04-24T10:00:17;10.52;;;2.80;;
23628;SDS011;11991;57.150;-2.134;2023-04-24T10:02:49;6.70;;;2.30;;
23628;SDS011;11991;57.150;-2.134;2023-04-24T10:05:18;4.13;;;2.15;;
23628;SDS011;11991;57.150;-2.134;2023-04-24T10:08:35;6.15;;;2.20;;
23628;SDS011;11991;57.150;-2.134;2023-04-24T10:10:44;8.02;;;2.40;;
23628;SDS011;11991;57.150;-2.134;2023-04-24T10:13:13;5.70;;;2.15;;
23628;SDS011;11991;57.150;-2.134;2023-04-24T10:15:41;9.02;;;2.53;;
23628;SDS011;11991;57.150;-2.134;2023-04-24T10:18:18;7.47;;;2.00;;
23628;SDS011;11991;57.150;-2.134;2023-04-24T10:20:56;8.02;;;1.98;;
23628;SDS011;11991;57.150;-2.134;2023-04-24T10:23:29;7.25;;;2.20;;
23628;SDS011;11991;57.150;-2.134;2023-04-24T10:26:04;5.72;;;2.70;;
23628;SDS011;11991;57.150;-2.134;2023-04-24T10:28:31;7.55;;;2.25;;
23628;SDS011;11991;57.150;-2.134;2023-04-24T10:31:00;9.52;;;2.28;;
23628;SDS011;11991;57.150;-2.134;2023-04-24T10:33:29;3.92;;;1.80;;
23628;SDS011;11991;57.150;-2.134;2023-04-24T10:35:57;4.97;;;1.77;;
23628;SDS011;11991;57.150;-2.134;2023-04-24T10:38:25;5.53;;;1.42;;
23628;SDS011;11991;57.150;-2.134;2023-04-24T10:41:09;4.82;;;1.52;;
23628;SDS011;11991;57.150;-2.134;2023-04-24T10:43:42;5.78;;;1.50;;
23628;SDS011;11991;57.150;-2.134;2023-04-24T10:46:19;2.78;;;1.33;;
23628;SDS011;11991;57.150;-2.134;2023-04-24T10:48:53;6.80;;;1.60;;
23628;SDS011;11991;57.150;-2.134;2023-04-24T10:58:50;3.22;;;1.40;;
23628;SDS011;11991;57.150;-2.134;2023-04-24T11:36:48;4.78;;;1.70;;
23628;SDS011;11991;57.150;-2.134;2023-04-24T11:44:09;3.33;;;1.70;;
23628;SDS011;11991;57.150;-2.134;2023-04-24T12:11:32;3.20;;;1.00;;
23628;SDS011;11991;57.150;-2.134;2023-04-24T12:17:35;2.15;;;1.20;;
23628;SDS011;11991;57.150;-2.134;2023-04-24T12:20:06;3.80;;;1.00;;
23628;SDS011;11991;57.150;-2.134;2023-04-24T12:25:24;2.95;;;1.30;;
23628;SDS011;11991;57.150;-2.134;2023-04-24T12:30:40;7.00;;;1.67;;
23628;SDS011;11991;57.150;-2.134;2023-04-24T12:33:07;3.40;;;1.38;;
23628;SDS011;11991;57.150;-2.134;2023-04-24T12:35:35;5.25;;;1.38;;
23628;SDS011;11991;57.150;-2.134;2023-04-24T12:38:06;4.95;;;1.55;;
23628;SDS011;11991;57.150;-2.134;2023-04-24T12:40:34;3.38;;;1.50;;
23628;SDS011;11991;57.150;-2.134;2023-04-24T12:43:02;4.45;;;1.40;;
23628;SDS011;11991;57.150;-2.134;2023-04-24T12:45:39;4.00;;;1.52;;
23628;SDS011;11991;57.150;-2.134;2023-04-24T12:48:06;7.45;;;1.98;;
23628;SDS011;11991;57.150;-2.134;2023-04-24T12:50:34;5.32;;;1.60;;
23628;SDS011;11991;57.150;-2.134;2023-04-24T12:53:01;3.63;;;1.25;;
23628;SDS011;11991;57.150;-2.134;2023-04-24T12:55:28;5.93;;;1.58;;
23628;SDS011;11991;57.150;-2.134;2023-04-24T12:57:56;4.10;;;1.52;;
23628;SDS011;11991;57.150;-2.134;2023-04-24T13:00:24;6.05;;;1.80;;
23628;SDS011;11991;57.150;-2.134;2023-04-24T13:02:52;5.15;;;2.33;;
23628;SDS011;11991;57.150;-2.134;2023-04-24T13:05:20;4.20;;;1.80;;
23628;SDS011;11991;57.150;-2.134;2023-04-24T13:07:50;5.03;;;1.40;;
23628;SDS011;11991;57.150;-2.134;2023-04-24T13:10:17;3.72;;;1.45;;
23628;SDS011;11991;57.150;-2.134;2023-04-24T13:12:45;4.15;;;1.40;;
23628;SDS011;11991;57.150;-2.134;2023-04-24T13:15:13;4.10;;;1.30;;
23628;SDS011;11991;57.150;-2.134;2023-04-24T13:17:40;2.78;;;1.30;;
23628;SDS011;11991;57.150;-2.134;2023-04-24T13:20:07;3.88;;;1.17;;
23628;SDS011;11991;57.150;-2.134;2023-04-24T13:22:35;3.10;;;1.40;;
23628;SDS011;11991;57.150;-2.134;2023-04-24T13:25:04;3.20;;;1.13;;
23628;SDS011;11991;57.150;-2.134;2023-04-24T13:27:32;1.63;;;1.10;;
23628;SDS011;11991;57.150;-2.134;2023-04-24T13:30:00;3.83;;;1.58;;
23628;SDS011;11991;57.150;-2.134;2023-04-24T13:32:27;2.75;;;1.52;;
23628;SDS011;11991;57.150;-2.134;2023-04-24T13:34:56;4.35;;;1.90;;
23628;SDS011;11991;57.150;-2.134;2023-04-24T13:37:23;1.52;;;0.93;;
23628;SDS011;11991;57.150;-2.134;2023-04-24T13:39:50;4.47;;;1.50;;
23628;SDS011;11991;57.150;-2.134;2023-04-24T13:42:18;1.85;;;0.90;;
23628;SDS011;11991;57.150;-2.134;2023-04-24T13:44:46;3.78;;;1.13;;
23628;SDS011;11991;57.150;-2.134;2023-04-24T13:47:14;4.05;;;1.38;;
23628;SDS011;11991;57.150;-2.134;2023-04-24T13:49:41;2.88;;;1.00;;
23628;SDS011;11991;57.150;-2.134;2023-04-24T13:52:09;4.43;;;1.20;;
23628;SDS011;11991;57.150;-2.134;2023-04-24T13:54:37;2.38;;;1.10;;
23628;SDS011;11991;57.150;-2.134;2023-04-24T13:57:04;4.60;;;1.55;;
23628;SDS011;11991;57.150;-2.134;2023-04-24T13:59:31;3.88;;;1.45;;
23628;SDS011;11991;57.150;-2.134;2023-04-24T14:01:58;3.33;;;1.35;;
23628;SDS011;11991;57.150;-2.134;2023-04-24T14:04:27;5.82;;;1.73;;
23628;SDS011;11991;57.150;-2.134;2023-04-24T14:06:55;3.88;;;1.35;;
23628;SDS011;11991;57.150;-2.134;2023-04-24T14:09:22;4.55;;;1.33;;
23628;SDS011;11991;57.150;-2.134;2023-04-24T14:11:51;2.67;;;1.00;;
23628;SDS011;11991;57.150;-2.134;2023-04-24T14:14:19;1.67;;;0.90;;
23628;SDS011;11991;57.150;-2.134;2023-04-24T14:16:46;5.63;;;1.20;;
23628;SDS011;11991;57.150;-2.134;2023-04-24T14:19:13;3.67;;;1.20;;
23628;SDS011;11991;57.150;-2.134;2023-04-24T14:21:40;3.88;;;1.60;;
23628;SDS011;11991;57.150;-2.134;2023-04-24T14:24:08;2.90;;;1.48;;
23628;SDS011;11991;57.150;-2.134;2023-04-24T14:26:35;2.38;;;1.10;;
23628;SDS011;11991;57.150;-2.134;2023-04-24T14:29:03;6.22;;;1.50;;
23628;SDS011;11991;57.150;-2.134;2023-04-24T14:31:40;6.90;;;1.40;;
23628;SDS011;11991;57.150;-2.134;2023-04-24T14:34:08;3.00;;;1.02;;
23628;SDS011;11991;57.150;-2.134;2023-04-24T14:36:36;4.72;;;1.50;;
23628;SDS011;11991;57.150;-2.134;2023-04-24T14:39:04;4.35;;;1.30;;
23628;SDS011;11991;57.150;-2.134;2023-04-24T14:41:34;3.43;;;1.13;;
23628;SDS011;11991;57.150;-2.134;2023-04-24T14:44:02;4.18;;;1.10;;
23628;SDS011;11991;57.150;-2.134;2023-04-24T14:46:30;5.95;;;1.10;;
23628;SDS011;11991;57.150;-2.134;2023-04-24T14:48:58;6.18;;;1.35;;
23628;SDS011;11991;57.150;-2.134;2023-04-24T14:51:25;5.00;;;1.60;;
23628;SDS011;11991;57.150;-2.134;2023-04-24T14:53:53;4.25;;;1.23;;
23628;SDS011;11991;57.150;-2.134;2023-04-24T14:56:20;4.00;;;1.20;;
23628;SDS011;11991;57.150;-2.134;2023-04-24T14:58:49;4.55;;;1.00;;
23628;SDS011;11991;57.150;-2.134;2023-04-24T15:01:16;4.18;;;1.10;;
23628;SDS011;11991;57.150;-2.134;2023-04-24T15:03:44;4.03;;;1.20;;
23628;SDS011;11991;57.150;-2.134;2023-04-24T15:06:13;3.90;;;1.20;;
23628;SDS011;11991;57.150;-2.134;2023-04-24T15:08:40;2.40;;;0.90;;
23628;SDS011;11991;57.150;-2.134;2023-04-24T15:11:09;2.55;;;0.88;;
23628;SDS011;11991;57.150;-2.134;2023-04-24T15:13:36;2.08;;;1.00;;
23628;SDS011;11991;57.150;-2.134;2023-04-24T15:16:04;3.95;;;1.67;;
23628;SDS011;11991;57.150;-2.134;2023-04-24T15:18:32;3.00;;;1.40;;
23628;SDS011;11991;57.150;-2.134;2023-04-24T15:20:59;2.97;;;1.30;;
23628;SDS011;11991;57.150;-2.134;2023-04-24T15:23:26;3.50;;;1.20;;
23628;SDS011;11991;57.150;-2.134;2023-04-24T15:25:54;12.10;;;1.85;;
23628;SDS011;11991;57.150;-2.134;2023-04-24T15:28:21;6.18;;;1.48;;
23628;SDS011;11991;57.150;-2.134;2023-04-24T15:30:48;3.85;;;1.38;;
23628;SDS011;11991;57.150;-2.134;2023-04-24T15:33:16;2.65;;;1.30;;
23628;SDS011;11991;57.150;-2.134;2023-04-24T15:35:44;5.95;;;1.25;;
23628;SDS011;11991;57.150;-2.134;2023-04-24T15:38:11;3.97;;;1.25;;
23628;SDS011;11991;57.150;-2.134;2023-04-24T15:40:38;3.60;;;1.63;;
23628;SDS011;11991;57.150;-2.134;2023-04-24T15:43:06;4.05;;;1.27;;
23628;SDS011;11991;57.150;-2.134;2023-04-24T15:45:33;5.03;;;1.77;;
23628;SDS011;11991;57.150;-2.134;2023-04-24T15:48:02;3.87;;;1.30;;
23628;SDS011;11991;57.150;-2.134;2023-04-24T15:50:29;3.92;;;1.70;;
23628;SDS011;11991;57.150;-2.134;2023-04-24T15:52:56;3.42;;;1.40;;
23628;SDS011;11991;57.150;-2.134;2023-04-24T15:55:24;2.85;;;1.65;;
23628;SDS011;11991;57.150;-2.134;2023-04-24T15:57:51;2.38;;;1.38;;
23628;SDS011;11991;57.150;-2.134;2023-04-24T16:00:18;5.70;;;2.05;;
23628;SDS011;11991;57.150;-2.134;2023-04-24T16:02:46;2.47;;;1.10;;
23628;SDS011;11991;57.150;-2.134;2023-04-24T16:05:16;1.75;;;1.10;;
23628;SDS011;11991;57.150;-2.134;2023-04-24T16:07:45;3.97;;;1.40;;
23628;SDS011;11991;57.150;-2.134;2023-04-24T16:10:12;3.65;;;1.30;;
23628;SDS011;11991;57.150;-2.134;2023-04-24T16:12:40;4.20;;;1.65;;
23628;SDS011;11991;57.150;-2.134;2023-04-24T16:15:07;4.82;;;1.23;;
23628;SDS011;11991;57.150;-2.134;2023-04-24T16:17:35;2.80;;;1.25;;
23628;SDS011;11991;57.150;-2.134;2023-04-24T16:20:03;5.45;;;2.17;;
23628;SDS011;11991;57.150;-2.134;2023-04-24T16:22:30;4.20;;;1.65;;
23628;SDS011;11991;57.150;-2.134;2023-04-24T16:24:57;1.90;;;1.40;;